createdAt,value
2023-05-21T00:00:13.000Z,26.70
2023-05-21T00:01:12.963Z,27.80
2023-05-21T00:02:12.949Z,24.00
2023-05-21T00:03:12.972Z,25.10
2023-05-21T00:04:12.955Z,25.80
2023-05-21T00:05:14.638Z,25.10
2023-05-21T00:06:12.951Z,27.50
2023-05-21T00:07:12.926Z,27.90
2023-05-21T00:08:12.915Z,25.50
2023-05-21T00:09:12.939Z,24.90
2023-05-21T00:10:12.925Z,24.50
2023-05-21T00:11:12.875Z,27.30
2023-05-21T00:12:12.884Z,27.20
2023-05-21T00:13:12.842Z,25.70
2023-05-21T00:14:12.869Z,27.30
2023-05-21T00:15:12.873Z,25.60
2023-05-21T00:16:12.912Z,30.40
2023-05-21T00:17:12.808Z,25.30
2023-05-21T00:18:12.866Z,25.20
2023-05-21T00:19:12.889Z,24.80
2023-05-21T00:20:12.871Z,26.30
2023-05-21T00:21:12.779Z,25.80
2023-05-21T00:22:12.786Z,26.00
2023-05-21T00:23:12.759Z,27.50
2023-05-21T00:24:12.757Z,27.20
2023-05-21T00:25:12.749Z,25.90
2023-05-21T00:26:12.791Z,28.00
2023-05-21T00:27:12.744Z,26.40
2023-05-21T00:28:12.742Z,27.50
2023-05-21T00:29:12.750Z,24.60
2023-05-21T00:30:12.745Z,26.20
2023-05-21T00:31:12.730Z,26.20
2023-05-21T00:32:12.822Z,27.10
2023-05-21T00:33:12.699Z,27.70
2023-05-21T00:34:12.687Z,30.70
2023-05-21T00:35:12.647Z,28.00
2023-05-21T00:36:12.704Z,27.80
2023-05-21T00:37:12.637Z,28.50
2023-05-21T00:38:12.637Z,30.30
2023-05-21T00:39:12.626Z,27.50
2023-05-21T00:40:12.690Z,27.00
2023-05-21T00:41:12.596Z,26.90
2023-05-21T00:42:12.626Z,25.80
2023-05-21T00:43:12.627Z,27.60
2023-05-21T00:44:12.620Z,30.90
2023-05-21T00:45:12.616Z,27.40
2023-05-21T00:46:12.653Z,25.70
2023-05-21T00:47:12.551Z,26.50
2023-05-21T00:48:12.582Z,27.10
2023-05-21T00:49:12.557Z,25.70
2023-05-21T00:50:12.570Z,28.00
2023-05-21T00:51:12.532Z,26.40
2023-05-21T00:52:12.545Z,27.70
2023-05-21T00:53:12.528Z,28.30
2023-05-21T00:54:12.523Z,27.60
2023-05-21T00:55:12.573Z,27.90
2023-05-21T00:56:12.491Z,30.50
2023-05-21T00:57:12.457Z,26.10
2023-05-21T00:58:12.475Z,28.80
2023-05-21T00:59:12.501Z,28.70
2023-05-21T01:00:12.468Z,27.60
2023-05-21T01:01:12.490Z,29.80
2023-05-21T01:02:12.476Z,27.00
2023-05-21T01:03:12.540Z,27.50
2023-05-21T01:04:12.424Z,28.80
2023-05-21T01:05:12.431Z,27.40
2023-05-21T01:06:12.412Z,28.30
2023-05-21T01:07:12.391Z,28.60
2023-05-21T01:08:12.401Z,36.00
2023-05-21T01:09:12.380Z,28.40
2023-05-21T01:10:12.485Z,26.10
2023-05-21T01:11:12.353Z,28.30
2023-05-21T01:12:12.363Z,29.00
2023-05-21T01:13:12.346Z,29.60
2023-05-21T01:14:12.349Z,27.30
2023-05-21T01:15:12.311Z,28.00
2023-05-21T01:16:12.360Z,27.20
2023-05-21T01:17:12.395Z,26.40
2023-05-21T01:18:12.362Z,30.90
2023-05-21T01:19:12.370Z,30.00
2023-05-21T01:20:12.315Z,26.80
2023-05-21T01:21:12.311Z,30.10
2023-05-21T01:22:12.264Z,27.30
2023-05-21T01:23:12.267Z,27.40
2023-05-21T01:24:12.307Z,27.80
2023-05-21T01:25:12.258Z,29.70
2023-05-21T01:26:12.252Z,26.20
2023-05-21T01:27:12.210Z,29.70
2023-05-21T01:28:12.212Z,27.50
2023-05-21T01:29:12.220Z,33.10
2023-05-21T01:30:12.197Z,27.40
2023-05-21T01:31:12.198Z,28.70
2023-05-21T01:32:12.200Z,28.00
2023-05-21T01:33:12.262Z,27.30
2023-05-21T01:34:12.227Z,32.20
2023-05-21T01:35:12.148Z,27.90
2023-05-21T01:36:12.173Z,28.80
2023-05-21T01:37:12.184Z,28.40
2023-05-21T01:38:12.142Z,30.90
2023-05-21T01:39:12.131Z,28.50
2023-05-21T01:40:12.143Z,28.50
2023-05-21T01:41:12.118Z,31.00
2023-05-21T01:42:12.144Z,30.00
2023-05-21T01:43:12.117Z,31.40
2023-05-21T01:44:12.128Z,29.30
2023-05-21T01:45:12.074Z,29.80
2023-05-21T01:46:12.145Z,34.20
2023-05-21T01:47:12.079Z,31.90
2023-05-21T01:48:12.162Z,29.50
2023-05-21T01:49:12.053Z,31.20
2023-05-21T01:50:12.074Z,30.20
2023-05-21T01:51:12.063Z,31.00
2023-05-21T01:52:12.038Z,30.60
2023-05-21T01:53:12.017Z,30.10
2023-05-21T01:54:12.058Z,30.80
2023-05-21T01:55:12.006Z,30.40
2023-05-21T01:56:12.005Z,31.20
2023-05-21T01:57:12.007Z,31.90
2023-05-21T01:58:12.035Z,32.40
2023-05-21T01:59:11.992Z,30.90
2023-05-21T02:00:12.040Z,29.40
2023-05-21T02:01:11.949Z,31.50
2023-05-21T02:02:12.043Z,30.40
2023-05-21T02:03:12.036Z,30.00
2023-05-21T02:04:12.038Z,34.10
2023-05-21T02:05:11.938Z,30.10
2023-05-21T02:06:11.980Z,30.70
2023-05-21T02:07:11.907Z,33.70
2023-05-21T02:08:11.916Z,32.70
2023-05-21T02:09:11.933Z,31.80
2023-05-21T02:10:11.899Z,30.40
2023-05-21T02:11:11.912Z,30.70
2023-05-21T02:12:11.914Z,31.10
2023-05-21T02:13:11.876Z,32.60
2023-05-21T02:14:11.912Z,30.50
2023-05-21T02:15:11.848Z,30.80
2023-05-21T02:16:11.946Z,32.20
2023-05-21T02:17:11.834Z,30.40
2023-05-21T02:18:11.907Z,31.70
2023-05-21T02:19:11.882Z,30.80
2023-05-21T02:20:11.888Z,33.30
2023-05-21T02:21:11.804Z,29.90
2023-05-21T02:22:11.836Z,34.00
2023-05-21T02:23:11.838Z,33.50
2023-05-21T02:24:11.819Z,31.10
2023-05-21T02:25:11.787Z,35.70
2023-05-21T02:26:11.803Z,32.60
2023-05-21T02:27:11.782Z,33.00
2023-05-21T02:28:11.776Z,31.50
2023-05-21T02:29:11.757Z,32.80
2023-05-21T02:30:11.797Z,30.20
2023-05-21T02:31:11.758Z,33.40
2023-05-21T02:32:11.745Z,34.00
2023-05-21T02:33:11.772Z,31.20
2023-05-21T02:34:11.737Z,33.00
2023-05-21T02:35:11.707Z,31.90
2023-05-21T02:36:11.709Z,31.00
2023-05-21T02:37:11.678Z,33.40
2023-05-21T02:38:11.689Z,33.10
2023-05-21T02:39:11.694Z,35.70
2023-05-21T02:40:11.682Z,34.20
2023-05-21T02:41:11.651Z,34.30
2023-05-21T02:42:11.681Z,35.10
2023-05-21T02:43:12.935Z,34.80
2023-05-21T02:44:11.653Z,35.40
2023-05-21T02:45:11.830Z,32.00
2023-05-21T02:46:11.651Z,34.10
2023-05-21T02:47:11.600Z,32.60
2023-05-21T02:48:11.702Z,34.80
2023-05-21T02:49:11.612Z,33.60
2023-05-21T02:50:11.600Z,36.00
2023-05-21T02:51:11.602Z,33.00
2023-05-21T02:52:11.575Z,32.30
2023-05-21T02:53:11.589Z,33.70
2023-05-21T02:54:11.573Z,33.40
2023-05-21T02:55:11.554Z,32.60
2023-05-21T02:56:11.548Z,34.00
2023-05-21T02:57:11.549Z,37.30
2023-05-21T02:58:11.535Z,33.80
2023-05-21T02:59:11.496Z,33.90
2023-05-21T03:00:11.506Z,33.10
2023-05-21T03:01:11.597Z,33.00
2023-05-21T03:02:11.535Z,32.30
2023-05-21T03:03:11.596Z,34.20
2023-05-21T03:04:11.474Z,35.80
2023-05-21T03:05:11.455Z,36.00
2023-05-21T03:06:11.468Z,33.70
2023-05-21T03:07:11.460Z,35.50
2023-05-21T03:08:11.453Z,36.00
2023-05-21T03:09:11.463Z,33.90
2023-05-21T03:10:11.455Z,34.20
2023-05-21T03:11:11.414Z,33.00
2023-05-21T03:12:11.458Z,35.50
2023-05-21T03:13:11.426Z,35.70
2023-05-21T03:14:11.397Z,34.10
2023-05-21T03:15:11.399Z,32.40
2023-05-21T03:16:11.448Z,33.50
2023-05-21T03:17:11.362Z,36.50
2023-05-21T03:18:11.411Z,35.40
2023-05-21T03:19:11.421Z,34.60
2023-05-21T03:20:11.361Z,35.70
2023-05-21T03:21:11.387Z,36.50
2023-05-21T03:22:11.364Z,36.00
2023-05-21T03:23:11.546Z,35.10
2023-05-21T03:24:11.314Z,35.90
2023-05-21T03:25:11.303Z,35.50
2023-05-21T03:26:11.305Z,37.30
2023-05-21T03:27:11.273Z,34.10
2023-05-21T03:28:11.310Z,34.90
2023-05-21T03:29:11.285Z,36.40
2023-05-21T03:30:11.267Z,35.10
2023-05-21T03:31:11.256Z,37.30
2023-05-21T03:32:11.276Z,39.20
2023-05-21T03:33:11.339Z,34.00
2023-05-21T03:34:11.245Z,35.30
2023-05-21T03:35:11.211Z,34.20
2023-05-21T03:36:11.253Z,35.80
2023-05-21T03:37:11.203Z,37.80
2023-05-21T03:38:11.238Z,38.20
2023-05-21T03:39:11.215Z,37.90
2023-05-21T03:40:11.201Z,36.30
2023-05-21T03:41:11.168Z,37.80
2023-05-21T03:42:11.168Z,37.30
2023-05-21T03:43:11.160Z,35.50
2023-05-21T03:44:11.153Z,36.50
2023-05-21T03:45:11.154Z,36.70
2023-05-21T03:46:11.179Z,38.30
2023-05-21T03:47:11.135Z,36.10
2023-05-21T03:48:11.141Z,36.40
2023-05-21T03:49:11.197Z,36.60
2023-05-21T03:50:11.123Z,36.60
2023-05-21T03:51:11.090Z,38.80
2023-05-21T03:52:11.100Z,36.30
2023-05-21T03:53:11.096Z,37.80
2023-05-21T03:54:11.084Z,39.20
2023-05-21T03:55:11.085Z,37.40
2023-05-21T03:56:11.062Z,38.70
2023-05-21T03:57:11.052Z,40.10
2023-05-21T03:58:11.081Z,38.10
2023-05-21T03:59:11.037Z,36.80
2023-05-21T04:00:11.056Z,39.60
2023-05-21T04:01:11.020Z,39.80
2023-05-21T04:02:11.093Z,38.50
2023-05-21T04:03:11.089Z,37.20
2023-05-21T04:04:11.218Z,37.50
2023-05-21T04:05:11.013Z,38.10
2023-05-21T04:06:11.010Z,35.80
2023-05-21T04:07:10.973Z,36.50
2023-05-21T04:08:10.967Z,35.70
2023-05-21T04:09:10.955Z,36.80
2023-05-21T04:10:10.959Z,38.10
2023-05-21T04:11:10.963Z,39.40
2023-05-21T04:12:10.955Z,38.40
2023-05-21T04:13:10.939Z,37.70
2023-05-21T04:14:10.939Z,37.20
2023-05-21T04:15:10.907Z,39.20
2023-05-21T04:16:11.003Z,37.20
2023-05-21T04:17:10.895Z,38.50
2023-05-21T04:18:10.904Z,35.50
2023-05-21T04:19:11.022Z,38.50
2023-05-21T04:20:10.882Z,37.90
2023-05-21T04:21:10.856Z,35.40
2023-05-21T04:22:10.902Z,34.90
2023-05-21T04:23:10.860Z,36.20
2023-05-21T04:24:10.858Z,35.50
2023-05-21T04:25:10.856Z,36.70
2023-05-21T04:26:10.839Z,39.90
2023-05-21T04:27:10.812Z,36.90
2023-05-21T04:28:10.821Z,37.80
2023-05-21T04:29:10.824Z,34.90
2023-05-21T04:30:10.843Z,36.50
2023-05-21T04:31:10.840Z,35.90
2023-05-21T04:32:10.801Z,36.40
2023-05-21T04:33:10.781Z,38.30
2023-05-21T04:34:10.773Z,39.30
2023-05-21T04:35:10.751Z,39.70
2023-05-21T04:36:10.803Z,37.70
2023-05-21T04:37:10.749Z,36.10
2023-05-21T04:38:10.761Z,37.50
2023-05-21T04:39:10.710Z,35.90
2023-05-21T04:40:10.767Z,37.90
2023-05-21T04:41:10.723Z,38.00
2023-05-21T04:42:10.748Z,37.20
2023-05-21T04:43:10.683Z,37.90
2023-05-21T04:44:10.690Z,35.20
2023-05-21T04:45:10.678Z,37.30
2023-05-21T04:46:10.707Z,37.10
2023-05-21T04:47:10.712Z,37.20
2023-05-21T04:48:10.670Z,36.40
2023-05-21T04:49:10.665Z,37.80
2023-05-21T04:50:10.656Z,37.40
2023-05-21T04:51:10.616Z,37.40
2023-05-21T04:52:10.639Z,37.90
2023-05-21T04:53:10.613Z,36.90
2023-05-21T04:54:10.617Z,36.80
2023-05-21T04:55:10.618Z,35.60
2023-05-21T04:56:10.614Z,34.20
2023-05-21T04:57:10.570Z,36.10
2023-05-21T04:58:10.574Z,36.50
2023-05-21T04:59:10.559Z,34.90
2023-05-21T05:00:10.585Z,39.50
2023-05-21T05:01:10.645Z,37.20
2023-05-21T05:02:10.549Z,37.00
2023-05-21T05:03:10.612Z,36.70
2023-05-21T05:04:10.539Z,36.40
2023-05-21T05:05:10.528Z,34.50
2023-05-21T05:06:10.532Z,36.20
2023-05-21T05:07:10.505Z,36.10
2023-05-21T05:08:10.516Z,36.30
2023-05-21T05:09:10.527Z,33.90
2023-05-21T05:10:10.497Z,34.30
2023-05-21T05:11:10.473Z,32.70
2023-05-21T05:12:10.472Z,32.70
2023-05-21T05:13:10.452Z,34.90
2023-05-21T05:14:10.468Z,33.70
2023-05-21T05:15:10.469Z,34.60
2023-05-21T05:16:10.464Z,35.80
2023-05-21T05:17:10.417Z,35.20
2023-05-21T05:18:10.540Z,34.70
2023-05-21T05:19:10.486Z,35.40
2023-05-21T05:20:10.412Z,34.70
2023-05-21T05:21:10.379Z,35.90
2023-05-21T05:22:12.407Z,33.90
2023-05-21T05:23:10.372Z,35.20
2023-05-21T05:24:10.400Z,33.30
2023-05-21T05:25:10.364Z,33.50
2023-05-21T05:26:10.381Z,34.20
2023-05-21T05:27:10.340Z,34.90
2023-05-21T05:28:10.343Z,34.10
2023-05-21T05:29:10.364Z,34.50
2023-05-21T05:30:10.338Z,34.20
2023-05-21T05:31:10.417Z,34.70
2023-05-21T05:32:10.327Z,34.20
2023-05-21T05:33:10.286Z,33.70
2023-05-21T05:34:10.292Z,33.50
2023-05-21T05:35:10.270Z,32.70
2023-05-21T05:36:10.280Z,34.60
2023-05-21T05:37:10.271Z,36.90
2023-05-21T05:38:10.284Z,34.20
2023-05-21T05:39:10.249Z,32.60
2023-05-21T05:40:10.245Z,33.90
2023-05-21T05:41:10.258Z,34.80
2023-05-21T05:42:10.233Z,32.90
2023-05-21T05:43:10.318Z,34.80
2023-05-21T05:44:11.016Z,33.20
2023-05-21T05:45:10.203Z,32.40
2023-05-21T05:46:10.248Z,33.60
2023-05-21T05:47:10.175Z,34.10
2023-05-21T05:48:10.281Z,34.00
2023-05-21T05:49:10.195Z,31.80
2023-05-21T05:50:10.184Z,32.40
2023-05-21T05:51:10.155Z,32.10
2023-05-21T05:52:10.149Z,32.30
2023-05-21T05:53:10.140Z,32.00
2023-05-21T05:54:10.151Z,32.90
2023-05-21T05:55:10.138Z,33.20
2023-05-21T05:56:10.135Z,33.70
2023-05-21T05:57:10.092Z,36.20
2023-05-21T05:58:10.103Z,33.20
2023-05-21T05:59:10.081Z,36.20
2023-05-21T06:00:10.075Z,35.60
2023-05-21T06:01:10.098Z,32.20
2023-05-21T06:02:10.111Z,32.70
2023-05-21T06:03:10.112Z,32.70
2023-05-21T06:04:10.062Z,35.00
2023-05-21T06:05:10.051Z,33.00
2023-05-21T06:06:10.116Z,34.70
2023-05-21T06:07:10.032Z,33.80
2023-05-21T06:08:10.040Z,34.10
2023-05-21T06:09:10.020Z,31.70
2023-05-21T06:10:10.019Z,30.70
2023-05-21T06:11:09.985Z,30.60
2023-05-21T06:12:14.609Z,32.20
2023-05-21T06:13:09.975Z,32.40
2023-05-21T06:14:09.978Z,32.60
2023-05-21T06:15:09.970Z,33.60
2023-05-21T06:16:10.031Z,30.30
2023-05-21T06:17:09.921Z,30.80
2023-05-21T06:18:09.982Z,31.40
2023-05-21T06:19:09.969Z,30.60
2023-05-21T06:20:09.925Z,31.00
2023-05-21T06:21:09.937Z,34.60
2023-05-21T06:22:09.907Z,33.70
2023-05-21T06:23:09.866Z,33.90
2023-05-21T06:24:09.890Z,34.00
2023-05-21T06:25:09.864Z,33.90
2023-05-21T06:26:09.877Z,31.00
2023-05-21T06:27:09.863Z,30.50
2023-05-21T06:28:09.852Z,32.60
2023-05-21T06:29:09.826Z,31.70
2023-05-21T06:30:09.841Z,30.70
2023-05-21T06:31:09.818Z,30.40
2023-05-21T06:32:09.859Z,34.80
2023-05-21T06:33:09.857Z,30.90
2023-05-21T06:34:09.808Z,29.80
2023-05-21T06:35:09.789Z,31.50
2023-05-21T06:36:09.804Z,33.10
2023-05-21T06:37:09.779Z,31.80
2023-05-21T06:38:09.817Z,30.40
2023-05-21T06:39:09.758Z,30.90
2023-05-21T06:40:09.763Z,31.10
2023-05-21T06:41:09.754Z,29.40
2023-05-21T06:42:09.758Z,32.20
2023-05-21T06:43:09.723Z,30.50
2023-05-21T06:44:09.739Z,30.40
2023-05-21T06:45:09.734Z,31.50
2023-05-21T06:46:09.738Z,29.10
2023-05-21T06:47:09.687Z,30.70
2023-05-21T06:48:09.740Z,28.20
2023-05-21T06:49:10.037Z,31.80
2023-05-21T06:50:09.666Z,29.40
2023-05-21T06:51:09.668Z,31.30
2023-05-21T06:52:09.657Z,29.30
2023-05-21T06:53:09.652Z,31.00
2023-05-21T06:54:09.666Z,32.70
2023-05-21T06:55:09.602Z,31.20
2023-05-21T06:56:09.671Z,30.00
2023-05-21T06:57:09.609Z,29.10
2023-05-21T06:58:09.604Z,27.60
2023-05-21T06:59:09.598Z,29.70
2023-05-21T07:00:09.594Z,30.70
2023-05-21T07:01:09.586Z,27.50
2023-05-21T07:02:09.636Z,28.90
2023-05-21T07:03:09.707Z,29.00
2023-05-21T07:04:09.561Z,28.20
2023-05-21T07:05:09.534Z,30.10
2023-05-21T07:06:09.533Z,29.50
2023-05-21T07:07:09.506Z,28.10
2023-05-21T07:08:11.816Z,26.40
2023-05-21T07:09:09.529Z,26.50
2023-05-21T07:10:09.505Z,29.10
2023-05-21T07:11:09.538Z,26.00
2023-05-21T07:12:09.504Z,28.70
2023-05-21T07:13:09.456Z,27.40
2023-05-21T07:14:09.488Z,27.60
2023-05-21T07:15:09.456Z,27.20
2023-05-21T07:16:09.478Z,29.00
2023-05-21T07:17:09.628Z,24.10
2023-05-21T07:18:09.506Z,27.50
2023-05-21T07:19:09.498Z,27.50
2023-05-21T07:20:09.441Z,27.10
2023-05-21T07:21:09.413Z,24.70
2023-05-21T07:22:09.435Z,25.30
2023-05-21T07:23:09.368Z,26.10
2023-05-21T07:24:09.452Z,26.40
2023-05-21T07:25:09.364Z,23.90
2023-05-21T07:26:09.387Z,28.00
2023-05-21T07:27:24.842Z,26.70
2023-05-21T07:28:10.385Z,25.40
2023-05-21T07:29:09.370Z,28.30
2023-05-21T07:30:09.382Z,26.70
2023-05-21T07:31:09.338Z,27.60
2023-05-21T07:32:09.359Z,27.00
2023-05-21T07:33:09.409Z,27.00
2023-05-21T07:34:09.313Z,26.40
2023-05-21T07:35:09.365Z,28.20
2023-05-21T07:36:09.307Z,26.00
2023-05-21T07:37:09.306Z,25.20
2023-05-21T07:38:09.331Z,22.90
2023-05-21T07:39:09.278Z,25.60
2023-05-21T07:40:09.275Z,26.60
2023-05-21T07:41:09.293Z,27.10
2023-05-21T07:42:09.259Z,28.60
2023-05-21T07:43:09.257Z,26.00
2023-05-21T07:44:09.277Z,26.80
2023-05-21T07:45:09.234Z,26.50
2023-05-21T07:46:09.273Z,26.10
2023-05-21T07:47:09.253Z,27.80
2023-05-21T07:48:09.303Z,26.80
2023-05-21T07:49:09.194Z,25.70
2023-05-21T07:50:09.212Z,26.00
2023-05-21T07:51:09.192Z,25.20
2023-05-21T07:52:09.201Z,25.40
2023-05-21T07:53:09.206Z,27.50
2023-05-21T07:54:09.177Z,26.50
2023-05-21T07:55:09.151Z,26.50
2023-05-21T07:56:09.165Z,26.60
2023-05-21T07:57:09.131Z,26.00
2023-05-21T07:58:09.192Z,26.70
2023-05-21T07:59:09.127Z,23.20
2023-05-21T08:00:09.145Z,24.00
2023-05-21T08:01:09.115Z,24.60
2023-05-21T08:02:09.106Z,23.30
2023-05-21T08:03:09.147Z,25.40
2023-05-21T08:04:09.218Z,27.80
2023-05-21T08:05:09.130Z,25.90
2023-05-21T08:06:09.130Z,26.70
2023-05-21T08:07:09.059Z,24.30
2023-05-21T08:08:09.088Z,24.40
2023-05-21T08:09:09.057Z,23.60
2023-05-21T08:10:09.130Z,23.90
2023-05-21T08:11:09.051Z,21.90
2023-05-21T08:12:09.064Z,23.70
2023-05-21T08:13:09.027Z,22.20
2023-05-21T08:14:09.042Z,24.10
2023-05-21T08:15:09.028Z,23.10
2023-05-21T08:16:09.049Z,21.40
2023-05-21T08:17:09.042Z,24.00
2023-05-21T08:18:09.128Z,23.00
2023-05-21T08:19:09.003Z,22.90
2023-05-21T08:20:08.990Z,24.20
2023-05-21T08:21:08.966Z,21.20
2023-05-21T08:22:08.970Z,22.10
2023-05-21T08:23:09.078Z,23.70
2023-05-21T08:24:08.970Z,25.00
2023-05-21T08:25:08.920Z,20.80
2023-05-21T08:26:08.945Z,23.90
2023-05-21T08:27:08.917Z,21.60
2023-05-21T08:28:08.928Z,23.40
2023-05-21T08:29:08.910Z,20.50
2023-05-21T08:30:08.924Z,19.30
2023-05-21T08:31:08.891Z,22.20
2023-05-21T08:32:08.975Z,21.90
2023-05-21T08:33:08.906Z,22.20
2023-05-21T08:34:08.908Z,18.80
2023-05-21T08:35:08.885Z,20.10
2023-05-21T08:36:08.885Z,19.60
2023-05-21T08:37:08.855Z,21.30
2023-05-21T08:38:08.870Z,19.50
2023-05-21T08:39:08.831Z,20.70
2023-05-21T08:40:08.821Z,20.40
2023-05-21T08:41:08.808Z,19.90
2023-05-21T08:42:08.842Z,20.20
2023-05-21T08:43:08.832Z,20.70
2023-05-21T08:44:08.808Z,18.40
2023-05-21T08:45:08.828Z,20.60
2023-05-21T08:46:08.844Z,20.40
2023-05-21T08:47:08.757Z,19.90
2023-05-21T08:48:08.756Z,20.10
2023-05-21T08:49:08.766Z,19.00
2023-05-21T08:50:08.762Z,18.60
2023-05-21T08:51:08.747Z,21.00
2023-05-21T08:52:08.751Z,20.00
2023-05-21T08:53:19.444Z,19.40
2023-05-21T08:54:09.738Z,17.90
2023-05-21T08:55:08.730Z,20.80
2023-05-21T08:56:08.728Z,17.80
2023-05-21T08:57:08.712Z,20.60
2023-05-21T08:58:08.716Z,18.70
2023-05-21T08:59:08.694Z,21.90
2023-05-21T09:00:08.706Z,18.10
2023-05-21T09:01:08.709Z,18.00
2023-05-21T09:02:08.667Z,18.20
2023-05-21T09:03:08.772Z,19.10
2023-05-21T09:04:19.487Z,20.80
2023-05-21T09:05:09.636Z,19.30
2023-05-21T09:06:08.637Z,18.60
2023-05-21T09:07:08.620Z,21.80
2023-05-21T09:08:08.632Z,17.90
2023-05-21T09:09:08.599Z,17.20
2023-05-21T09:10:08.659Z,17.80
2023-05-21T09:11:08.593Z,22.90
2023-05-21T09:12:08.601Z,19.00
2023-05-21T09:13:08.583Z,20.30
2023-05-21T09:14:08.616Z,17.90
2023-05-21T09:15:08.572Z,18.20
2023-05-21T09:16:08.604Z,16.40
2023-05-21T09:17:08.561Z,18.20
2023-05-21T09:18:08.610Z,15.70
2023-05-21T09:19:08.573Z,18.80
2023-05-21T09:20:08.553Z,16.40
2023-05-21T09:21:08.552Z,16.90
2023-05-21T09:22:08.567Z,17.20
2023-05-21T09:23:08.515Z,16.90
2023-05-21T09:24:08.541Z,18.00
2023-05-21T09:25:08.534Z,19.30
2023-05-21T09:26:08.540Z,18.70
2023-05-21T09:27:08.486Z,19.10
2023-05-21T09:28:08.498Z,17.20
2023-05-21T09:29:08.470Z,17.40
2023-05-21T09:30:08.485Z,17.00
2023-05-21T09:31:08.490Z,16.00
2023-05-21T09:32:08.511Z,17.80
2023-05-21T09:33:08.466Z,18.60
2023-05-21T09:34:08.472Z,16.50
2023-05-21T09:35:08.428Z,16.20
2023-05-21T09:36:08.484Z,14.90
2023-05-21T09:37:13.503Z,17.80
2023-05-21T09:38:09.455Z,17.50
2023-05-21T09:39:08.402Z,16.20
2023-05-21T09:40:08.426Z,17.60
2023-05-21T09:41:08.376Z,15.40
2023-05-21T09:42:08.378Z,18.40
2023-05-21T09:43:08.373Z,18.80
2023-05-21T09:44:08.398Z,15.90
2023-05-21T09:45:08.378Z,16.50
2023-05-21T09:46:08.401Z,18.00
2023-05-21T09:47:08.351Z,15.00
2023-05-21T09:48:08.447Z,18.20
2023-05-21T09:49:08.338Z,17.40
2023-05-21T09:50:08.332Z,17.80
2023-05-21T09:51:08.331Z,16.00
2023-05-21T09:52:08.361Z,16.90
2023-05-21T09:53:08.317Z,15.60
2023-05-21T09:54:08.360Z,16.90
2023-05-21T09:55:08.288Z,16.90
2023-05-21T09:56:08.322Z,17.40
2023-05-21T09:57:08.301Z,18.30
2023-05-21T09:58:08.288Z,16.00
2023-05-21T09:59:08.254Z,16.80
2023-05-21T10:00:08.281Z,18.20
2023-05-21T10:01:08.243Z,18.60
2023-05-21T10:02:08.396Z,17.20
2023-05-21T10:03:08.375Z,14.40
2023-05-21T10:04:08.315Z,16.80
2023-05-21T10:05:08.228Z,17.80
2023-05-21T10:06:08.235Z,17.30
2023-05-21T10:07:08.244Z,17.90
2023-05-21T10:08:08.206Z,15.90
2023-05-21T10:09:08.260Z,18.50
2023-05-21T10:10:08.206Z,17.10
2023-05-21T10:11:08.184Z,16.80
2023-05-21T10:12:08.193Z,16.40
2023-05-21T10:13:08.170Z,15.60
2023-05-21T10:14:08.219Z,16.50
2023-05-21T10:15:08.204Z,15.20
2023-05-21T10:16:08.186Z,15.40
2023-05-21T10:17:08.130Z,16.20
2023-05-21T10:18:08.181Z,16.50
2023-05-21T10:19:08.153Z,16.20
2023-05-21T10:20:08.135Z,19.50
2023-05-21T10:21:08.155Z,16.60
2023-05-21T10:22:08.102Z,17.10
2023-05-21T10:23:08.127Z,14.50
2023-05-21T10:24:08.095Z,16.80
2023-05-21T10:25:08.135Z,18.40
2023-05-21T10:26:08.087Z,16.80
2023-05-21T10:27:08.077Z,16.60
2023-05-21T10:28:08.095Z,16.10
2023-05-21T10:29:08.088Z,16.50
2023-05-21T10:30:08.059Z,15.80
2023-05-21T10:31:08.066Z,15.80
2023-05-21T10:32:08.057Z,15.80
2023-05-21T10:33:08.073Z,16.30
2023-05-21T10:34:08.021Z,14.40
2023-05-21T10:35:08.019Z,15.80
2023-05-21T10:36:08.013Z,15.50
2023-05-21T10:37:08.001Z,13.50
2023-05-21T10:38:07.998Z,15.80
2023-05-21T10:39:07.986Z,15.10
2023-05-21T10:40:07.976Z,16.40
2023-05-21T10:41:07.992Z,15.80
2023-05-21T10:42:08.014Z,15.00
2023-05-21T10:43:07.950Z,13.50
2023-05-21T10:44:07.971Z,13.90
2023-05-21T10:45:07.969Z,15.40
2023-05-21T10:46:08.058Z,15.30
2023-05-21T10:47:07.957Z,13.90
2023-05-21T10:48:07.965Z,14.40
2023-05-21T10:49:07.940Z,13.60
2023-05-21T10:50:07.930Z,14.80
2023-05-21T10:51:07.918Z,15.50
2023-05-21T10:52:07.930Z,14.00
2023-05-21T10:53:10.579Z,14.30
2023-05-21T10:54:07.958Z,15.40
2023-05-21T10:55:07.865Z,16.30
2023-05-21T10:56:07.907Z,15.70
2023-05-21T10:57:07.853Z,16.70
2023-05-21T10:58:07.857Z,15.40
2023-05-21T10:59:07.867Z,15.40
2023-05-21T11:00:07.869Z,17.40
2023-05-21T11:01:07.896Z,14.30
2023-05-21T11:02:07.954Z,16.00
2023-05-21T11:03:07.894Z,14.10
2023-05-21T11:04:07.821Z,17.60
2023-05-21T11:05:07.808Z,14.10
2023-05-21T11:06:07.808Z,13.90
2023-05-21T11:07:07.795Z,15.00
2023-05-21T11:08:07.830Z,15.70
2023-05-21T11:09:07.780Z,17.30
2023-05-21T11:10:07.778Z,12.50
2023-05-21T11:11:07.789Z,17.50
2023-05-21T11:12:07.780Z,13.60
2023-05-21T11:13:07.764Z,13.50
2023-05-21T11:14:07.752Z,13.70
2023-05-21T11:15:07.754Z,14.50
2023-05-21T11:16:07.769Z,15.00
2023-05-21T11:17:07.764Z,15.20
2023-05-21T11:18:07.737Z,14.20
2023-05-21T11:19:07.850Z,15.10
2023-05-21T11:20:07.735Z,15.10
2023-05-21T11:21:07.710Z,14.50
2023-05-21T11:22:07.712Z,14.40
2023-05-21T11:23:07.726Z,14.20
2023-05-21T11:24:07.705Z,14.30
2023-05-21T11:25:07.651Z,15.40
2023-05-21T11:26:07.688Z,14.10
2023-05-21T11:27:07.661Z,13.80
2023-05-21T11:28:07.649Z,15.00
2023-05-21T11:29:07.695Z,14.70
2023-05-21T11:30:07.676Z,13.50
2023-05-21T11:31:07.689Z,13.10
2023-05-21T11:32:07.630Z,16.20
2023-05-21T11:33:07.774Z,14.90
2023-05-21T11:34:07.638Z,15.40
2023-05-21T11:35:07.691Z,14.30
2023-05-21T11:36:07.592Z,14.50
2023-05-21T11:37:07.575Z,14.60
2023-05-21T11:38:07.597Z,14.60
2023-05-21T11:39:07.606Z,14.20
2023-05-21T11:40:07.611Z,16.00
2023-05-21T11:41:07.552Z,14.40
2023-05-21T11:42:07.553Z,14.60
2023-05-21T11:43:07.530Z,16.00
2023-05-21T11:44:07.561Z,14.30
2023-05-21T11:45:07.528Z,15.30
2023-05-21T11:46:07.827Z,14.00
2023-05-21T11:47:07.495Z,15.00
2023-05-21T11:48:07.625Z,15.60
2023-05-21T11:49:07.504Z,14.90
2023-05-21T11:50:07.539Z,14.90
2023-05-21T11:51:07.467Z,14.20
2023-05-21T11:52:07.509Z,18.60
2023-05-21T11:53:07.501Z,13.30
2023-05-21T11:54:07.479Z,15.00
2023-05-21T11:55:07.486Z,14.50
2023-05-21T11:56:07.474Z,13.10
2023-05-21T11:57:07.460Z,14.30
2023-05-21T11:58:07.446Z,14.40
2023-05-21T11:59:07.417Z,16.30
2023-05-21T12:00:07.464Z,15.90
2023-05-21T12:01:07.410Z,14.90
2023-05-21T12:02:07.444Z,15.60
2023-05-21T12:03:07.510Z,14.30
2023-05-21T12:04:07.449Z,14.30
2023-05-21T12:05:07.396Z,15.50
2023-05-21T12:06:07.403Z,14.80
2023-05-21T12:07:07.456Z,16.00
2023-05-21T12:08:07.389Z,13.00
2023-05-21T12:09:07.358Z,13.80
2023-05-21T12:10:07.350Z,14.40
2023-05-21T12:11:07.357Z,15.20
2023-05-21T12:12:07.370Z,15.30
2023-05-21T12:13:07.377Z,14.20
2023-05-21T12:14:07.360Z,15.70
2023-05-21T12:15:07.335Z,14.10
2023-05-21T12:16:07.401Z,14.90
2023-05-21T12:17:07.302Z,13.00
2023-05-21T12:18:07.481Z,16.20
2023-05-21T12:19:07.291Z,16.10
2023-05-21T12:20:07.272Z,14.30
2023-05-21T12:21:07.282Z,15.20
2023-05-21T12:22:07.293Z,13.80
2023-05-21T12:23:07.295Z,15.40
2023-05-21T12:24:07.280Z,14.00
2023-05-21T12:25:07.233Z,13.70
2023-05-21T12:26:07.308Z,13.90
2023-05-21T12:27:07.242Z,15.60
2023-05-21T12:28:07.220Z,15.30
2023-05-21T12:29:07.250Z,14.60
2023-05-21T12:30:07.215Z,15.90
2023-05-21T12:31:07.256Z,14.50
2023-05-21T12:32:07.377Z,18.80
2023-05-21T12:33:07.298Z,17.10
2023-05-21T12:34:07.204Z,16.30
2023-05-21T12:35:07.199Z,14.70
2023-05-21T12:36:07.194Z,14.80
2023-05-21T12:37:07.183Z,16.20
2023-05-21T12:38:07.225Z,17.70
2023-05-21T12:39:07.969Z,15.80
2023-05-21T12:40:07.171Z,16.50
2023-05-21T12:41:07.151Z,17.20
2023-05-21T12:42:07.133Z,14.50
2023-05-21T12:43:07.134Z,15.60
2023-05-21T12:44:07.150Z,13.70
2023-05-21T12:45:07.124Z,16.40
2023-05-21T12:46:07.191Z,16.00
2023-05-21T12:47:07.085Z,14.10
2023-05-21T12:48:07.189Z,16.50
2023-05-21T12:49:07.097Z,16.10
2023-05-21T12:50:07.081Z,16.40
2023-05-21T12:51:07.083Z,15.40
2023-05-21T12:52:07.111Z,15.60